sensor_id;sensor_type;location;lat;lon;timestamp;pressure;altitude;pressure_sealevel;temperature;humidity
59831;BME280;45711;50.108;13.712;2023-10-08T00:02:09;98096.72;;;16.88;64.72
59831;BME280;45711;50.108;13.712;2023-10-08T00:04:35;98094.50;;;16.90;64.93
59831;BME280;45711;50.108;13.712;2023-10-08T00:07:03;98101.47;;;16.82;65.40
59831;BME280;45711;50.108;13.712;2023-10-08T00:09:33;98103.41;;;16.91;64.72
59831;BME280;45711;50.108;13.712;2023-10-08T00:12:03;98106.13;;;16.91;64.87
59831;BME280;45711;50.108;13.712;2023-10-08T00:14:29;98099.25;;;16.93;64.67
59831;BME280;45711;50.108;13.712;2023-10-08T00:16:54;98101.66;;;16.86;65.31
59831;BME280;45711;50.108;13.712;2023-10-08T00:19:20;98101.19;;;16.93;65.00
59831;BME280;45711;50.108;13.712;2023-10-08T00:21:46;98105.34;;;16.99;64.66
59831;BME280;45711;50.108;13.712;2023-10-08T00:24:13;98108.81;;;16.91;64.50
59831;BME280;45711;50.108;13.712;2023-10-08T00:26:39;98105.63;;;16.89;64.78
59831;BME280;45711;50.108;13.712;2023-10-08T00:29:08;98096.53;;;16.84;65.08
59831;BME280;45711;50.108;13.712;2023-10-08T00:31:47;98114.03;;;16.78;65.16
59831;BME280;45711;50.108;13.712;2023-10-08T00:34:15;98110.41;;;16.92;65.24
59831;BME280;45711;50.108;13.712;2023-10-08T00:36:42;98088.94;;;16.87;65.14
59831;BME280;45711;50.108;13.712;2023-10-08T00:39:08;98101.47;;;16.82;65.12
59831;BME280;45711;50.108;13.712;2023-10-08T00:41:40;98097.66;;;16.83;64.76
59831;BME280;45711;50.108;13.712;2023-10-08T00:44:11;98102.91;;;16.89;64.92
59831;BME280;45711;50.108;13.712;2023-10-08T00:46:41;98102.75;;;16.76;64.98
59831;BME280;45711;50.108;13.712;2023-10-08T00:49:15;98092.09;;;16.80;65.32
59831;BME280;45711;50.108;13.712;2023-10-08T00:51:47;98092.84;;;16.72;65.25
59831;BME280;45711;50.108;13.712;2023-10-08T00:54:13;98088.28;;;16.72;65.08
59831;BME280;45711;50.108;13.712;2023-10-08T00:56:46;98094.16;;;16.83;65.41
59831;BME280;45711;50.108;13.712;2023-10-08T00:59:20;98097.63;;;16.75;65.37
59831;BME280;45711;50.108;13.712;2023-10-08T01:01:50;98097.81;;;16.78;64.99
59831;BME280;45711;50.108;13.712;2023-10-08T01:04:30;98089.66;;;16.70;65.26
59831;BME280;45711;50.108;13.712;2023-10-08T01:07:00;98082.97;;;16.67;65.32
59831;BME280;45711;50.108;13.712;2023-10-08T01:09:38;98085.34;;;16.60;65.59
59831;BME280;45711;50.108;13.712;2023-10-08T01:12:10;98098.69;;;16.65;65.37
59831;BME280;45711;50.108;13.712;2023-10-08T01:14:46;98101.88;;;16.67;65.53
59831;BME280;45711;50.108;13.712;2023-10-08T01:17:15;98098.44;;;16.75;65.49
59831;BME280;45711;50.108;13.712;2023-10-08T01:19:42;98094.25;;;16.69;65.53
59831;BME280;45711;50.108;13.712;2023-10-08T01:22:12;98090.91;;;16.64;65.82
59831;BME280;45711;50.108;13.712;2023-10-08T01:24:44;98096.00;;;16.65;66.01
59831;BME280;45711;50.108;13.712;2023-10-08T01:27:13;98105.22;;;16.64;65.65
59831;BME280;45711;50.108;13.712;2023-10-08T01:29:44;98100.94;;;16.63;66.00
59831;BME280;45711;50.108;13.712;2023-10-08T01:32:10;98093.47;;;16.69;65.92
59831;BME280;45711;50.108;13.712;2023-10-08T01:34:36;98094.59;;;16.68;66.02
59831;BME280;45711;50.108;13.712;2023-10-08T01:37:02;98089.63;;;16.61;65.70
59831;BME280;45711;50.108;13.712;2023-10-08T01:39:36;98093.13;;;16.62;65.67
59831;BME280;45711;50.108;13.712;2023-10-08T01:42:01;98093.28;;;16.65;65.90
59831;BME280;45711;50.108;13.712;2023-10-08T01:44:27;98087.28;;;16.68;65.58
59831;BME280;45711;50.108;13.712;2023-10-08T01:46:54;98086.94;;;16.61;65.58
59831;BME280;45711;50.108;13.712;2023-10-08T01:49:22;98087.25;;;16.59;65.79
59831;BME280;45711;50.108;13.712;2023-10-08T01:51:51;98083.09;;;16.53;66.39
59831;BME280;45711;50.108;13.712;2023-10-08T01:54:19;98097.88;;;16.56;65.60
59831;BME280;45711;50.108;13.712;2023-10-08T01:56:47;98097.38;;;16.54;66.43
59831;BME280;45711;50.108;13.712;2023-10-08T01:59:15;98097.72;;;16.61;66.50
59831;BME280;45711;50.108;13.712;2023-10-08T02:01:41;98093.63;;;16.64;65.98
59831;BME280;45711;50.108;13.712;2023-10-08T02:04:07;98096.28;;;16.55;66.36
59831;BME280;45711;50.108;13.712;2023-10-08T02:06:33;98095.97;;;16.56;65.92
59831;BME280;45711;50.108;13.712;2023-10-08T02:08:59;98091.53;;;16.61;65.64
59831;BME280;45711;50.108;13.712;2023-10-08T02:11:24;98086.13;;;16.61;65.91
59831;BME280;45711;50.108;13.712;2023-10-08T02:13:54;98083.91;;;16.63;65.95
59831;BME280;45711;50.108;13.712;2023-10-08T02:16:20;98079.28;;;16.54;65.88
59831;BME280;45711;50.108;13.712;2023-10-08T02:18:47;98073.88;;;16.54;66.63
59831;BME280;45711;50.108;13.712;2023-10-08T02:21:15;98067.03;;;16.57;66.13
59831;BME280;45711;50.108;13.712;2023-10-08T02:23:40;98057.34;;;16.56;66.79
59831;BME280;45711;50.108;13.712;2023-10-08T02:26:09;98064.19;;;16.62;65.95
59831;BME280;45711;50.108;13.712;2023-10-08T02:28:35;98064.34;;;16.57;66.06
59831;BME280;45711;50.108;13.712;2023-10-08T02:31:02;98078.97;;;16.56;66.29
59831;BME280;45711;50.108;13.712;2023-10-08T02:33:28;98067.03;;;16.57;66.19
59831;BME280;45711;50.108;13.712;2023-10-08T02:35:55;98058.94;;;16.57;66.67
59831;BME280;45711;50.108;13.712;2023-10-08T02:38:21;98055.13;;;16.58;66.38
59831;BME280;45711;50.108;13.712;2023-10-08T02:40:48;98060.69;;;16.53;66.27
59831;BME280;45711;50.108;13.712;2023-10-08T02:43:14;98058.16;;;16.56;66.40
59831;BME280;45711;50.108;13.712;2023-10-08T02:45:41;98052.13;;;16.59;66.27
59831;BME280;45711;50.108;13.712;2023-10-08T02:48:08;98047.34;;;16.56;66.95
59831;BME280;45711;50.108;13.712;2023-10-08T02:50:43;98039.25;;;16.56;66.06
59831;BME280;45711;50.108;13.712;2023-10-08T02:53:12;98036.38;;;16.62;66.12
59831;BME280;45711;50.108;13.712;2023-10-08T02:55:37;98042.28;;;16.64;66.47
59831;BME280;45711;50.108;13.712;2023-10-08T02:58:07;98049.56;;;16.54;66.83
59831;BME280;45711;50.108;13.712;2023-10-08T03:00:37;98062.75;;;16.56;66.74
59831;BME280;45711;50.108;13.712;2023-10-08T03:03:06;98069.75;;;16.57;66.81
59831;BME280;45711;50.108;13.712;2023-10-08T03:05:36;98081.53;;;16.61;67.37
59831;BME280;45711;50.108;13.712;2023-10-08T03:08:01;98084.06;;;16.66;67.60
59831;BME280;45711;50.108;13.712;2023-10-08T03:10:27;98093.13;;;16.62;66.86
59831;BME280;45711;50.108;13.712;2023-10-08T03:13:03;98106.16;;;16.59;67.84
59831;BME280;45711;50.108;13.712;2023-10-08T03:15:33;98100.75;;;16.59;66.86
59831;BME280;45711;50.108;13.712;2023-10-08T03:18:06;98094.25;;;16.61;67.24
59831;BME280;45711;50.108;13.712;2023-10-08T03:20:37;98093.09;;;16.53;66.76
59831;BME280;45711;50.108;13.712;2023-10-08T03:23:12;98090.13;;;16.63;67.37
59831;BME280;45711;50.108;13.712;2023-10-08T03:25:56;98088.69;;;16.66;67.23
59831;BME280;45711;50.108;13.712;2023-10-08T03:28:58;98081.88;;;16.68;67.53
59831;BME280;45711;50.108;13.712;2023-10-08T03:31:24;98096.38;;;16.72;67.19
59831;BME280;45711;50.108;13.712;2023-10-08T03:34:25;98095.25;;;16.73;67.61
59831;BME280;45711;50.108;13.712;2023-10-08T03:36:54;98096.00;;;16.65;66.90
59831;BME280;45711;50.108;13.712;2023-10-08T03:39:30;98086.78;;;16.66;67.23
59831;BME280;45711;50.108;13.712;2023-10-08T03:42:19;98091.97;;;16.54;66.76
59831;BME280;45711;50.108;13.712;2023-10-08T03:44:46;98089.44;;;16.49;67.07
59831;BME280;45711;50.108;13.712;2023-10-08T03:47:16;98088.22;;;16.64;67.73
59831;BME280;45711;50.108;13.712;2023-10-08T03:49:44;98080.41;;;16.62;67.95
59831;BME280;45711;50.108;13.712;2023-10-08T03:52:12;98096.75;;;16.57;67.23
59831;BME280;45711;50.108;13.712;2023-10-08T03:54:40;98096.75;;;16.57;68.04
59831;BME280;45711;50.108;13.712;2023-10-08T03:57:14;98100.25;;;16.57;67.31
59831;BME280;45711;50.108;13.712;2023-10-08T03:59:44;98100.94;;;16.63;67.88
59831;BME280;45711;50.108;13.712;2023-10-08T04:02:13;98103.13;;;16.61;67.21
59831;BME280;45711;50.108;13.712;2023-10-08T04:04:41;98105.50;;;16.63;67.82
59831;BME280;45711;50.108;13.712;2023-10-08T04:07:24;98098.69;;;16.65;67.65
59831;BME280;45711;50.108;13.712;2023-10-08T04:09:52;98095.69;;;16.67;68.17
59831;BME280;45711;50.108;13.712;2023-10-08T04:12:36;98092.94;;;16.58;67.06
59831;BME280;45711;50.108;13.712;2023-10-08T04:15:06;98084.06;;;16.66;67.64
59831;BME280;45711;50.108;13.712;2023-10-08T04:17:33;98085.00;;;16.53;67.70
59831;BME280;45711;50.108;13.712;2023-10-08T04:20:10;98093.44;;;16.60;68.27
59831;BME280;45711;50.108;13.712;2023-10-08T04:22:57;98105.22;;;16.64;67.96
59831;BME280;45711;50.108;13.712;2023-10-08T04:25:26;98105.97;;;16.56;67.37
59831;BME280;45711;50.108;13.712;2023-10-08T04:27:53;98107.59;;;16.66;67.41
59831;BME280;45711;50.108;13.712;2023-10-08T04:30:19;98107.44;;;16.71;68.48
59831;BME280;45711;50.108;13.712;2023-10-08T04:32:48;98111.88;;;16.67;67.96
59831;BME280;45711;50.108;13.712;2023-10-08T04:35:18;98122.28;;;16.73;68.17
59831;BME280;45711;50.108;13.712;2023-10-08T04:37:45;98132.53;;;16.63;67.76
59831;BME280;45711;50.108;13.712;2023-10-08T04:40:18;98133.97;;;16.60;67.51
59831;BME280;45711;50.108;13.712;2023-10-08T04:42:43;98139.09;;;16.70;68.24
59831;BME280;45711;50.108;13.712;2023-10-08T04:45:11;98144.03;;;16.68;68.23
59831;BME280;45711;50.108;13.712;2023-10-08T04:47:39;98133.81;;;16.65;68.30
59831;BME280;45711;50.108;13.712;2023-10-08T04:50:08;98137.94;;;16.63;67.68
59831;BME280;45711;50.108;13.712;2023-10-08T04:52:40;98132.41;;;16.68;68.02
59831;BME280;45711;50.108;13.712;2023-10-08T04:55:11;98103.66;;;16.72;68.18
59831;BME280;45711;50.108;13.712;2023-10-08T04:57:43;98111.94;;;16.75;68.09
59831;BME280;45711;50.108;13.712;2023-10-08T05:00:09;98118.78;;;16.73;67.81
59831;BME280;45711;50.108;13.712;2023-10-08T05:02:40;98107.28;;;16.67;68.36
59831;BME280;45711;50.108;13.712;2023-10-08T05:05:15;98104.28;;;16.69;68.19
59831;BME280;45711;50.108;13.712;2023-10-08T05:07:41;98107.59;;;16.66;68.48
59831;BME280;45711;50.108;13.712;2023-10-08T05:10:10;98109.34;;;16.70;68.98
59831;BME280;45711;50.108;13.712;2023-10-08T05:12:57;98106.66;;;16.70;69.42
59831;BME280;45711;50.108;13.712;2023-10-08T05:15:28;98102.53;;;16.64;68.11
59831;BME280;45711;50.108;13.712;2023-10-08T05:18:07;98104.75;;;16.71;70.59
59831;BME280;45711;50.108;13.712;2023-10-08T05:20:42;98115.09;;;16.69;68.96
59831;BME280;45711;50.108;13.712;2023-10-08T05:23:14;98150.09;;;16.74;69.88
59831;BME280;45711;50.108;13.712;2023-10-08T05:26:06;98144.31;;;16.67;69.44
59831;BME280;45711;50.108;13.712;2023-10-08T05:28:34;98178.69;;;16.44;71.72
59831;BME280;45711;50.108;13.712;2023-10-08T05:31:14;98180.81;;;16.24;71.99
59831;BME280;45711;50.108;13.712;2023-10-08T05:33:40;98173.19;;;16.26;71.05
59831;BME280;45711;50.108;13.712;2023-10-08T05:36:24;98201.31;;;16.25;70.54
59831;BME280;45711;50.108;13.712;2023-10-08T05:39:16;98213.03;;;16.21;70.56
59831;BME280;45711;50.108;13.712;2023-10-08T05:41:55;98206.34;;;16.18;70.42
59831;BME280;45711;50.108;13.712;2023-10-08T05:44:40;98217.00;;;16.23;70.28
59831;BME280;45711;50.108;13.712;2023-10-08T05:47:06;98245.78;;;16.28;69.75
59831;BME280;45711;50.108;13.712;2023-10-08T05:49:38;98246.50;;;16.11;70.11
59831;BME280;45711;50.108;13.712;2023-10-08T05:52:04;98267.25;;;16.24;69.21
59831;BME280;45711;50.108;13.712;2023-10-08T05:54:30;98264.25;;;15.90;69.15
59831;BME280;45711;50.108;13.712;2023-10-08T05:56:58;98271.28;;;16.13;68.75
59831;BME280;45711;50.108;13.712;2023-10-08T05:59:51;98281.91;;;15.96;69.24
59831;BME280;45711;50.108;13.712;2023-10-08T06:02:19;98311.25;;;15.75;69.83
59831;BME280;45711;50.108;13.712;2023-10-08T06:05:07;98313.09;;;16.02;69.64
59831;BME280;45711;50.108;13.712;2023-10-08T06:07:36;98331.09;;;16.06;69.36
59831;BME280;45711;50.108;13.712;2023-10-08T06:10:13;98308.72;;;15.92;69.23
59831;BME280;45711;50.108;13.712;2023-10-08T06:13:00;98335.59;;;16.11;68.95
59831;BME280;45711;50.108;13.712;2023-10-08T06:15:41;98326.56;;;16.02;68.91
59831;BME280;45711;50.108;13.712;2023-10-08T06:18:10;98340.69;;;15.99;68.85
59831;BME280;45711;50.108;13.712;2023-10-08T06:20:36;98344.72;;;15.74;70.27
59831;BME280;45711;50.108;13.712;2023-10-08T06:23:04;98347.63;;;15.77;70.05
59831;BME280;45711;50.108;13.712;2023-10-08T06:25:32;98377.69;;;15.98;70.07
59831;BME280;45711;50.108;13.712;2023-10-08T06:27:58;98359.53;;;15.76;69.78
59831;BME280;45711;50.108;13.712;2023-10-08T06:30:24;98383.88;;;15.71;70.08
59831;BME280;45711;50.108;13.712;2023-10-08T06:32:56;98376.41;;;15.68;70.96
59831;BME280;45711;50.108;13.712;2023-10-08T06:35:21;98373.38;;;15.97;70.16
59831;BME280;45711;50.108;13.712;2023-10-08T06:37:51;98391.00;;;15.95;69.67
59831;BME280;45711;50.108;13.712;2023-10-08T06:40:20;98382.59;;;15.55;71.53
59831;BME280;45711;50.108;13.712;2023-10-08T06:43:01;98397.13;;;15.26;72.99
59831;BME280;45711;50.108;13.712;2023-10-08T06:45:47;98419.59;;;14.89;73.51
59831;BME280;45711;50.108;13.712;2023-10-08T06:48:19;98414.66;;;14.77;74.47
59831;BME280;45711;50.108;13.712;2023-10-08T06:50:52;98439.03;;;15.19;73.92
59831;BME280;45711;50.108;13.712;2023-10-08T06:53:24;98440.94;;;15.18;72.85
59831;BME280;45711;50.108;13.712;2023-10-08T06:55:50;98455.75;;;15.34;72.91
59831;BME280;45711;50.108;13.712;2023-10-08T06:58:22;98458.00;;;15.46;71.71
59831;BME280;45711;50.108;13.712;2023-10-08T07:00:48;98468.50;;;15.15;72.40
59831;BME280;45711;50.108;13.712;2023-10-08T07:03:15;98468.22;;;14.98;72.78
59831;BME280;45711;50.108;13.712;2023-10-08T07:05:44;98476.22;;;14.84;73.34
59831;BME280;45711;50.108;13.712;2023-10-08T07:08:20;98485.50;;;15.29;72.56
59831;BME280;45711;50.108;13.712;2023-10-08T07:10:45;98484.03;;;15.04;70.44
59831;BME280;45711;50.108;13.712;2023-10-08T07:13:12;98497.84;;;15.17;70.82
59831;BME280;45711;50.108;13.712;2023-10-08T07:15:43;98502.63;;;15.39;69.62
59831;BME280;45711;50.108;13.712;2023-10-08T07:18:10;98511.94;;;14.33;70.08
59831;BME280;45711;50.108;13.712;2023-10-08T07:20:39;98527.28;;;14.75;72.83
59831;BME280;45711;50.108;13.712;2023-10-08T07:23:09;98516.00;;;14.92;71.34
59831;BME280;45711;50.108;13.712;2023-10-08T07:25:43;98523.94;;;14.41;69.48
59831;BME280;45711;50.108;13.712;2023-10-08T07:28:12;98525.72;;;14.26;70.98
59831;BME280;45711;50.108;13.712;2023-10-08T07:30:40;98533.13;;;14.64;70.05
59831;BME280;45711;50.108;13.712;2023-10-08T07:33:09;98523.06;;;14.69;69.13
59831;BME280;45711;50.108;13.712;2023-10-08T07:35:42;98535.13;;;14.29;69.61
59831;BME280;45711;50.108;13.712;2023-10-08T07:38:18;98545.72;;;13.67;71.02
59831;BME280;45711;50.108;13.712;2023-10-08T07:40:43;98552.50;;;13.89;71.65
59831;BME280;45711;50.108;13.712;2023-10-08T07:43:10;98562.81;;;14.05;71.51
59831;BME280;45711;50.108;13.712;2023-10-08T07:45:35;98560.53;;;14.18;69.71
59831;BME280;45711;50.108;13.712;2023-10-08T07:48:01;98565.19;;;14.12;70.28
59831;BME280;45711;50.108;13.712;2023-10-08T07:50:27;98567.22;;;13.96;71.13
59831;BME280;45711;50.108;13.712;2023-10-08T07:52:54;98571.53;;;13.68;70.59
59831;BME280;45711;50.108;13.712;2023-10-08T07:55:22;98571.00;;;13.95;71.35
59831;BME280;45711;50.108;13.712;2023-10-08T07:57:48;98574.53;;;13.91;70.98
59831;BME280;45711;50.108;13.712;2023-10-08T08:00:14;98563.47;;;13.68;70.20
59831;BME280;45711;50.108;13.712;2023-10-08T08:03:03;98565.63;;;14.43;70.34
59831;BME280;45711;50.108;13.712;2023-10-08T08:05:30;98569.41;;;14.18;68.40
59831;BME280;45711;50.108;13.712;2023-10-08T08:07:55;98573.06;;;14.32;68.91
59831;BME280;45711;50.108;13.712;2023-10-08T08:10:25;98570.38;;;14.27;68.54
59831;BME280;45711;50.108;13.712;2023-10-08T08:12:51;98595.47;;;14.52;70.97
59831;BME280;45711;50.108;13.712;2023-10-08T08:15:21;98591.78;;;14.43;68.58
59831;BME280;45711;50.108;13.712;2023-10-08T08:17:48;98585.50;;;13.99;68.85
59831;BME280;45711;50.108;13.712;2023-10-08T08:20:14;98582.13;;;13.83;68.81
59831;BME280;45711;50.108;13.712;2023-10-08T08:22:47;98586.97;;;13.52;70.07
59831;BME280;45711;50.108;13.712;2023-10-08T08:25:16;98585.81;;;13.64;70.92
59831;BME280;45711;50.108;13.712;2023-10-08T08:27:50;98610.03;;;13.93;71.55
59831;BME280;45711;50.108;13.712;2023-10-08T08:30:18;98608.78;;;13.51;70.50
59831;BME280;45711;50.108;13.712;2023-10-08T08:32:46;98621.63;;;13.59;70.51
59831;BME280;45711;50.108;13.712;2023-10-08T08:35:14;98620.00;;;14.50;70.50
59831;BME280;45711;50.108;13.712;2023-10-08T08:37:43;98624.19;;;13.74;72.34
59831;BME280;45711;50.108;13.712;2023-10-08T08:40:12;98621.53;;;13.69;72.41
59831;BME280;45711;50.108;13.712;2023-10-08T08:42:44;98633.53;;;13.82;73.95
59831;BME280;45711;50.108;13.712;2023-10-08T08:45:13;98645.84;;;13.93;72.68
59831;BME280;45711;50.108;13.712;2023-10-08T08:47:40;98648.19;;;14.29;71.82
59831;BME280;45711;50.108;13.712;2023-10-08T08:50:10;98659.09;;;14.14;72.77
59831;BME280;45711;50.108;13.712;2023-10-08T08:52:35;98666.25;;;14.81;71.31
59831;BME280;45711;50.108;13.712;2023-10-08T08:55:03;98673.84;;;14.21;70.53
59831;BME280;45711;50.108;13.712;2023-10-08T08:57:31;98686.13;;;13.64;73.21
59831;BME280;45711;50.108;13.712;2023-10-08T08:59:59;98679.47;;;13.51;73.61
59831;BME280;45711;50.108;13.712;2023-10-08T09:02:26;98681.91;;;13.87;72.05
59831;BME280;45711;50.108;13.712;2023-10-08T09:04:52;98688.84;;;13.59;73.43
59831;BME280;45711;50.108;13.712;2023-10-08T09:07:20;98714.47;;;13.46;73.74
59831;BME280;45711;50.108;13.712;2023-10-08T09:09:46;98715.94;;;13.13;75.72
59831;BME280;45711;50.108;13.712;2023-10-08T09:12:16;98714.56;;;13.21;76.21
59831;BME280;45711;50.108;13.712;2023-10-08T09:14:42;98710.06;;;13.06;75.64
59831;BME280;45711;50.108;13.712;2023-10-08T09:17:10;98720.22;;;13.24;77.14
59831;BME280;45711;50.108;13.712;2023-10-08T09:19:38;98715.47;;;13.61;73.86
59831;BME280;45711;50.108;13.712;2023-10-08T09:22:04;98715.16;;;13.62;72.76
59831;BME280;45711;50.108;13.712;2023-10-08T09:24:31;98723.72;;;13.25;73.55
59831;BME280;45711;50.108;13.712;2023-10-08T09:26:56;98733.69;;;13.09;76.46
59831;BME280;45711;50.108;13.712;2023-10-08T09:29:24;98726.09;;;13.31;75.09
59831;BME280;45711;50.108;13.712;2023-10-08T09:31:52;98729.34;;;13.28;74.01
59831;BME280;45711;50.108;13.712;2023-10-08T09:34:21;98744.66;;;13.33;76.00
59831;BME280;45711;50.108;13.712;2023-10-08T09:36:48;98741.47;;;13.16;73.64
59831;BME280;45711;50.108;13.712;2023-10-08T09:39:14;98759.47;;;13.10;73.96
59831;BME280;45711;50.108;13.712;2023-10-08T09:41:50;98742.88;;;12.98;74.96
59831;BME280;45711;50.108;13.712;2023-10-08T09:44:18;98751.00;;;12.62;75.00
59831;BME280;45711;50.108;13.712;2023-10-08T09:46:50;98735.81;;;13.22;75.60
59831;BME280;45711;50.108;13.712;2023-10-08T09:49:30;98737.38;;;13.33;73.58
59831;BME280;45711;50.108;13.712;2023-10-08T09:52:01;98744.53;;;13.58;72.69
59831;BME280;45711;50.108;13.712;2023-10-08T09:54:29;98751.69;;;13.08;72.80
59831;BME280;45711;50.108;13.712;2023-10-08T09:57:03;98764.78;;;13.36;73.51
59831;BME280;45711;50.108;13.712;2023-10-08T09:59:29;98778.94;;;14.01;72.38
59831;BME280;45711;50.108;13.712;2023-10-08T10:01:56;98776.84;;;13.98;72.16
59831;BME280;45711;50.108;13.712;2023-10-08T10:04:26;98784.50;;;14.20;71.65
59831;BME280;45711;50.108;13.712;2023-10-08T10:06:54;98781.13;;;13.99;71.25
59831;BME280;45711;50.108;13.712;2023-10-08T10:09:25;98785.53;;;14.24;69.92
59831;BME280;45711;50.108;13.712;2023-10-08T10:11:52;98781.91;;;13.55;70.58
59831;BME280;45711;50.108;13.712;2023-10-08T10:14:21;98789.97;;;13.60;71.20
59831;BME280;45711;50.108;13.712;2023-10-08T10:16:48;98782.22;;;13.48;71.64
59831;BME280;45711;50.108;13.712;2023-10-08T10:19:16;98785.59;;;12.99;71.77
59831;BME280;45711;50.108;13.712;2023-10-08T10:21:45;98791.66;;;13.36;72.49
59831;BME280;45711;50.108;13.712;2023-10-08T10:24:22;98784.69;;;13.89;69.85
59831;BME280;45711;50.108;13.712;2023-10-08T10:26:50;98791.16;;;13.18;71.35
59831;BME280;45711;50.108;13.712;2023-10-08T10:29:22;98804.13;;;12.91;73.55
59831;BME280;45711;50.108;13.712;2023-10-08T10:31:51;98826.16;;;13.03;75.68
59831;BME280;45711;50.108;13.712;2023-10-08T10:34:23;98819.97;;;13.02;75.00
59831;BME280;45711;50.108;13.712;2023-10-08T10:36:53;98821.31;;;12.95;73.61
59831;BME280;45711;50.108;13.712;2023-10-08T10:39:25;98815.97;;;12.85;73.32
59831;BME280;45711;50.108;13.712;2023-10-08T10:42:01;98811.66;;;12.99;73.39
59831;BME280;45711;50.108;13.712;2023-10-08T10:44:27;98821.06;;;12.91;74.05
59831;BME280;45711;50.108;13.712;2023-10-08T10:46:58;98817.22;;;13.33;73.96
59831;BME280;45711;50.108;13.712;2023-10-08T10:49:43;98812.13;;;13.21;74.52
59831;BME280;45711;50.108;13.712;2023-10-08T10:52:20;98804.63;;;13.08;74.96
59831;BME280;45711;50.108;13.712;2023-10-08T10:55:06;98808.91;;;13.19;74.27
59831;BME280;45711;50.108;13.712;2023-10-08T10:57:49;98817.75;;;13.35;74.19
59831;BME280;45711;50.108;13.712;2023-10-08T11:00:37;98807.56;;;13.27;73.37
59831;BME280;45711;50.108;13.712;2023-10-08T11:03:06;98809.31;;;13.62;72.84
59831;BME280;45711;50.108;13.712;2023-10-08T11:05:43;98820.19;;;13.21;71.67
59831;BME280;45711;50.108;13.712;2023-10-08T11:08:14;98816.72;;;13.16;72.74
59831;BME280;45711;50.108;13.712;2023-10-08T11:10:43;98827.19;;;13.12;74.28
59831;BME280;45711;50.108;13.712;2023-10-08T11:13:15;98823.44;;;13.28;73.47
59831;BME280;45711;50.108;13.712;2023-10-08T11:15:42;98818.97;;;13.68;71.73
59831;BME280;45711;50.108;13.712;2023-10-08T11:18:08;98817.38;;;13.67;70.95
59831;BME280;45711;50.108;13.712;2023-10-08T11:20:34;98821.16;;;13.61;70.66
59831;BME280;45711;50.108;13.712;2023-10-08T11:23:05;98802.34;;;13.56;70.68
59831;BME280;45711;50.108;13.712;2023-10-08T11:25:52;98804.47;;;13.64;68.84
59831;BME280;45711;50.108;13.712;2023-10-08T11:28:19;98800.16;;;13.68;70.40
59831;BME280;45711;50.108;13.712;2023-10-08T11:30:45;98803.13;;;14.45;68.96
59831;BME280;45711;50.108;13.712;2023-10-08T11:33:12;98797.31;;;13.94;67.44
59831;BME280;45711;50.108;13.712;2023-10-08T11:35:55;98795.84;;;14.12;67.78
59831;BME280;45711;50.108;13.712;2023-10-08T11:38:20;98791.50;;;13.76;67.54
59831;BME280;45711;50.108;13.712;2023-10-08T11:40:47;98797.72;;;13.67;68.99
59831;BME280;45711;50.108;13.712;2023-10-08T11:43:23;98807.94;;;13.70;70.51
59831;BME280;45711;50.108;13.712;2023-10-08T11:45:49;98801.84;;;13.98;70.25
59831;BME280;45711;50.108;13.712;2023-10-08T11:48:14;98804.84;;;13.92;68.85
59831;BME280;45711;50.108;13.712;2023-10-08T11:50:42;98804.44;;;14.14;68.56
59831;BME280;45711;50.108;13.712;2023-10-08T11:53:09;98801.91;;;13.88;67.97
59831;BME280;45711;50.108;13.712;2023-10-08T11:55:37;98809.28;;;14.17;69.60
59831;BME280;45711;50.108;13.712;2023-10-08T11:58:05;98803.47;;;13.99;67.59
59831;BME280;45711;50.108;13.712;2023-10-08T12:00:38;98808.16;;;13.78;67.40
59831;BME280;45711;50.108;13.712;2023-10-08T12:03:10;98807.94;;;13.70;66.63
59831;BME280;45711;50.108;13.712;2023-10-08T12:05:37;98806.78;;;13.86;66.57
59831;BME280;45711;50.108;13.712;2023-10-08T12:08:09;98805.16;;;13.80;67.26
59831;BME280;45711;50.108;13.712;2023-10-08T12:10:34;98812.66;;;14.32;70.27
59831;BME280;45711;50.108;13.712;2023-10-08T12:13:00;98805.44;;;14.23;68.16
59831;BME280;45711;50.108;13.712;2023-10-08T12:15:28;98796.78;;;13.92;66.65
59831;BME280;45711;50.108;13.712;2023-10-08T12:18:05;98784.91;;;13.93;66.31
59831;BME280;45711;50.108;13.712;2023-10-08T12:20:35;98786.56;;;13.94;66.57
59831;BME280;45711;50.108;13.712;2023-10-08T12:23:03;98786.81;;;13.92;65.96
59831;BME280;45711;50.108;13.712;2023-10-08T12:25:28;98788.91;;;14.00;65.93
59831;BME280;45711;50.108;13.712;2023-10-08T12:27:55;98800.16;;;14.13;67.26
59831;BME280;45711;50.108;13.712;2023-10-08T12:30:22;98803.13;;;14.06;66.24
59831;BME280;45711;50.108;13.712;2023-10-08T12:32:59;98806.22;;;14.28;67.82
59831;BME280;45711;50.108;13.712;2023-10-08T12:35:27;98798.41;;;13.88;64.92
59831;BME280;45711;50.108;13.712;2023-10-08T12:37:54;98792.59;;;13.70;66.22
59831;BME280;45711;50.108;13.712;2023-10-08T12:40:20;98794.63;;;13.94;66.96
59831;BME280;45711;50.108;13.712;2023-10-08T12:42:50;98793.22;;;14.01;66.19
59831;BME280;45711;50.108;13.712;2023-10-08T12:45:15;98784.13;;;13.92;66.81
59831;BME280;45711;50.108;13.712;2023-10-08T12:47:46;98773.19;;;13.78;64.06
59831;BME280;45711;50.108;13.712;2023-10-08T12:50:12;98779.09;;;13.75;65.27
59831;BME280;45711;50.108;13.712;2023-10-08T12:52:43;98787.19;;;14.15;68.37
59831;BME280;45711;50.108;13.712;2023-10-08T12:55:18;98787.81;;;14.41;66.38
59831;BME280;45711;50.108;13.712;2023-10-08T12:57:43;98788.19;;;14.29;66.34
59831;BME280;45711;50.108;13.712;2023-10-08T13:00:15;98788.38;;;14.03;63.13
59831;BME280;45711;50.108;13.712;2023-10-08T13:02:40;98786.56;;;13.94;63.34
59831;BME280;45711;50.108;13.712;2023-10-08T13:05:08;98789.97;;;14.04;63.39
59831;BME280;45711;50.108;13.712;2023-10-08T13:07:42;98792.66;;;14.04;66.05